sensor_id;sensor_type;location;lat;lon;timestamp;temperature;humidity
9450;DHT22;4763;48.370;10.874;2022-08-01T00:01:38;21.10;99.90
9450;DHT22;4763;48.370;10.874;2022-08-01T00:04:05;21.00;99.90
9450;DHT22;4763;48.370;10.874;2022-08-01T00:06:32;21.00;99.90
9450;DHT22;4763;48.370;10.874;2022-08-01T00:09:00;21.00;99.90
9450;DHT22;4763;48.370;10.874;2022-08-01T00:11:27;20.90;99.90
9450;DHT22;4763;48.370;10.874;2022-08-01T00:13:54;21.00;99.90
9450;DHT22;4763;48.370;10.874;2022-08-01T00:16:21;20.90;99.90
9450;DHT22;4763;48.370;10.874;2022-08-01T00:18:49;20.90;99.90
9450;DHT22;4763;48.370;10.874;2022-08-01T00:21:16;20.80;99.90
9450;DHT22;4763;48.370;10.874;2022-08-01T00:23:46;20.80;99.90
9450;DHT22;4763;48.370;10.874;2022-08-01T00:26:14;20.70;99.90
9450;DHT22;4763;48.370;10.874;2022-08-01T00:28:41;20.60;99.90
9450;DHT22;4763;48.370;10.874;2022-08-01T00:31:08;20.70;99.90
9450;DHT22;4763;48.370;10.874;2022-08-01T00:33:35;20.60;99.90
9450;DHT22;4763;48.370;10.874;2022-08-01T00:36:02;20.60;99.90
9450;DHT22;4763;48.370;10.874;2022-08-01T00:38:29;20.50;99.90
9450;DHT22;4763;48.370;10.874;2022-08-01T00:40:57;20.50;99.90
9450;DHT22;4763;48.370;10.874;2022-08-01T00:43:26;20.50;99.90
9450;DHT22;4763;48.370;10.874;2022-08-01T00:45:53;20.50;99.90
9450;DHT22;4763;48.370;10.874;2022-08-01T00:48:21;20.50;99.90
9450;DHT22;4763;48.370;10.874;2022-08-01T00:50:53;20.40;99.90
9450;DHT22;4763;48.370;10.874;2022-08-01T00:53:20;20.40;99.90
9450;DHT22;4763;48.370;10.874;2022-08-01T00:55:47;20.40;99.90
9450;DHT22;4763;48.370;10.874;2022-08-01T00:58:14;20.40;99.90
9450;DHT22;4763;48.370;10.874;2022-08-01T01:00:49;20.30;99.90
9450;DHT22;4763;48.370;10.874;2022-08-01T01:03:16;20.20;99.90
9450;DHT22;4763;48.370;10.874;2022-08-01T01:05:57;20.20;99.90
9450;DHT22;4763;48.370;10.874;2022-08-01T01:08:33;20.20;99.90
9450;DHT22;4763;48.370;10.874;2022-08-01T01:11:06;20.10;99.90
9450;DHT22;4763;48.370;10.874;2022-08-01T01:13:37;20.10;99.90
9450;DHT22;4763;48.370;10.874;2022-08-01T01:16:11;20.10;99.90
9450;DHT22;4763;48.370;10.874;2022-08-01T01:18:44;20.00;99.90
9450;DHT22;4763;48.370;10.874;2022-08-01T01:21:32;20.00;99.90
9450;DHT22;4763;48.370;10.874;2022-08-01T01:24:11;20.00;99.90
9450;DHT22;4763;48.370;10.874;2022-08-01T01:26:45;19.90;99.90
9450;DHT22;4763;48.370;10.874;2022-08-01T01:29:21;19.90;99.90
9450;DHT22;4763;48.370;10.874;2022-08-01T01:31:52;19.90;99.90
9450;DHT22;4763;48.370;10.874;2022-08-01T01:34:23;19.90;99.90
9450;DHT22;4763;48.370;10.874;2022-08-01T01:36:52;19.80;99.90
9450;DHT22;4763;48.370;10.874;2022-08-01T01:39:23;19.80;99.90
9450;DHT22;4763;48.370;10.874;2022-08-01T01:41:51;19.80;99.90
9450;DHT22;4763;48.370;10.874;2022-08-01T01:44:21;19.80;99.90
9450;DHT22;4763;48.370;10.874;2022-08-01T01:46:51;19.80;99.90
9450;DHT22;4763;48.370;10.874;2022-08-01T01:49:24;19.80;99.90
9450;DHT22;4763;48.370;10.874;2022-08-01T01:51:54;19.70;99.90
9450;DHT22;4763;48.370;10.874;2022-08-01T01:54:23;19.70;99.90
9450;DHT22;4763;48.370;10.874;2022-08-01T01:56:52;19.70;99.90
9450;DHT22;4763;48.370;10.874;2022-08-01T01:59:25;19.60;99.90
9450;DHT22;4763;48.370;10.874;2022-08-01T02:01:54;19.60;99.90
9450;DHT22;4763;48.370;10.874;2022-08-01T02:04:23;19.60;99.90
9450;DHT22;4763;48.370;10.874;2022-08-01T02:06:52;19.60;99.90
9450;DHT22;4763;48.370;10.874;2022-08-01T02:09:21;19.50;99.90
9450;DHT22;4763;48.370;10.874;2022-08-01T02:11:49;19.50;99.90
9450;DHT22;4763;48.370;10.874;2022-08-01T02:14:18;19.60;99.90
9450;DHT22;4763;48.370;10.874;2022-08-01T02:16:48;19.60;99.90
9450;DHT22;4763;48.370;10.874;2022-08-01T02:19:17;19.50;99.90
9450;DHT22;4763;48.370;10.874;2022-08-01T02:21:47;19.50;99.90
9450;DHT22;4763;48.370;10.874;2022-08-01T02:24:20;19.50;99.90
9450;DHT22;4763;48.370;10.874;2022-08-01T02:26:51;19.50;99.90
9450;DHT22;4763;48.370;10.874;2022-08-01T02:29:22;19.60;99.90
9450;DHT22;4763;48.370;10.874;2022-08-01T02:31:54;19.60;99.90
9450;DHT22;4763;48.370;10.874;2022-08-01T02:34:27;19.60;99.90
9450;DHT22;4763;48.370;10.874;2022-08-01T02:36:58;19.60;99.90
9450;DHT22;4763;48.370;10.874;2022-08-01T02:39:28;19.60;99.90
9450;DHT22;4763;48.370;10.874;2022-08-01T02:41:59;19.50;99.90
9450;DHT22;4763;48.370;10.874;2022-08-01T02:44:30;19.50;99.90
9450;DHT22;4763;48.370;10.874;2022-08-01T02:47:01;19.50;99.90
9450;DHT22;4763;48.370;10.874;2022-08-01T02:49:33;19.50;99.90
9450;DHT22;4763;48.370;10.874;2022-08-01T02:52:03;19.50;99.90
9450;DHT22;4763;48.370;10.874;2022-08-01T02:54:31;19.50;99.90
9450;DHT22;4763;48.370;10.874;2022-08-01T02:57:00;19.40;99.90
9450;DHT22;4763;48.370;10.874;2022-08-01T02:59:32;19.50;99.90
9450;DHT22;4763;48.370;10.874;2022-08-01T03:02:02;19.50;99.90
9450;DHT22;4763;48.370;10.874;2022-08-01T03:04:33;19.50;99.90
9450;DHT22;4763;48.370;10.874;2022-08-01T03:07:02;19.50;99.90
9450;DHT22;4763;48.370;10.874;2022-08-01T03:09:30;19.40;99.90
9450;DHT22;4763;48.370;10.874;2022-08-01T03:12:03;19.40;99.90
9450;DHT22;4763;48.370;10.874;2022-08-01T03:14:35;19.40;99.90
9450;DHT22;4763;48.370;10.874;2022-08-01T03:17:04;19.30;99.90
9450;DHT22;4763;48.370;10.874;2022-08-01T03:19:31;19.40;99.90
9450;DHT22;4763;48.370;10.874;2022-08-01T03:22:00;19.30;99.90
9450;DHT22;4763;48.370;10.874;2022-08-01T03:24:29;19.30;99.90
9450;DHT22;4763;48.370;10.874;2022-08-01T03:26:57;19.30;99.90
9450;DHT22;4763;48.370;10.874;2022-08-01T03:29:27;19.30;99.90
9450;DHT22;4763;48.370;10.874;2022-08-01T03:31:56;19.30;99.90
9450;DHT22;4763;48.370;10.874;2022-08-01T03:34:26;19.20;99.90
9450;DHT22;4763;48.370;10.874;2022-08-01T03:36:56;19.20;99.90
9450;DHT22;4763;48.370;10.874;2022-08-01T03:39:30;19.20;99.90
9450;DHT22;4763;48.370;10.874;2022-08-01T03:42:01;19.20;99.90
9450;DHT22;4763;48.370;10.874;2022-08-01T03:44:32;19.10;99.90
9450;DHT22;4763;48.370;10.874;2022-08-01T03:47:02;19.20;99.90
9450;DHT22;4763;48.370;10.874;2022-08-01T03:49:34;19.20;99.90
9450;DHT22;4763;48.370;10.874;2022-08-01T03:52:04;19.10;99.90
9450;DHT22;4763;48.370;10.874;2022-08-01T03:54:35;19.20;99.90
9450;DHT22;4763;48.370;10.874;2022-08-01T03:57:03;19.10;99.90
9450;DHT22;4763;48.370;10.874;2022-08-01T03:59:31;19.10;99.90
9450;DHT22;4763;48.370;10.874;2022-08-01T04:01:59;19.10;99.90
9450;DHT22;4763;48.370;10.874;2022-08-01T04:04:26;19.00;99.90
9450;DHT22;4763;48.370;10.874;2022-08-01T04:06:54;19.00;99.90
9450;DHT22;4763;48.370;10.874;2022-08-01T04:09:22;19.00;99.90
9450;DHT22;4763;48.370;10.874;2022-08-01T04:11:49;19.00;99.90
9450;DHT22;4763;48.370;10.874;2022-08-01T04:14:16;19.00;99.90
9450;DHT22;4763;48.370;10.874;2022-08-01T04:16:43;19.00;99.90
9450;DHT22;4763;48.370;10.874;2022-08-01T04:19:10;19.00;99.90
9450;DHT22;4763;48.370;10.874;2022-08-01T04:21:37;19.00;99.90
9450;DHT22;4763;48.370;10.874;2022-08-01T04:24:09;19.10;99.90
9450;DHT22;4763;48.370;10.874;2022-08-01T04:26:38;19.00;99.90
9450;DHT22;4763;48.370;10.874;2022-08-01T04:29:08;19.00;99.90
9450;DHT22;4763;48.370;10.874;2022-08-01T04:31:36;19.00;99.90
9450;DHT22;4763;48.370;10.874;2022-08-01T04:34:06;19.00;99.90
9450;DHT22;4763;48.370;10.874;2022-08-01T04:36:35;19.00;99.90
9450;DHT22;4763;48.370;10.874;2022-08-01T04:39:05;19.10;99.90
9450;DHT22;4763;48.370;10.874;2022-08-01T04:41:33;19.10;99.90
9450;DHT22;4763;48.370;10.874;2022-08-01T04:44:01;19.20;99.90
9450;DHT22;4763;48.370;10.874;2022-08-01T04:46:29;19.10;99.90
9450;DHT22;4763;48.370;10.874;2022-08-01T04:48:59;19.20;99.90
9450;DHT22;4763;48.370;10.874;2022-08-01T04:51:26;19.20;99.90
9450;DHT22;4763;48.370;10.874;2022-08-01T04:53:53;19.20;99.90
9450;DHT22;4763;48.370;10.874;2022-08-01T04:56:21;19.20;99.90
9450;DHT22;4763;48.370;10.874;2022-08-01T04:58:48;19.30;99.90
9450;DHT22;4763;48.370;10.874;2022-08-01T05:01:35;19.30;99.90
9450;DHT22;4763;48.370;10.874;2022-08-01T05:04:02;19.40;99.90
9450;DHT22;4763;48.370;10.874;2022-08-01T05:06:29;19.40;99.90
9450;DHT22;4763;48.370;10.874;2022-08-01T05:08:56;19.40;99.90
9450;DHT22;4763;48.370;10.874;2022-08-01T05:11:25;19.40;99.90
9450;DHT22;4763;48.370;10.874;2022-08-01T05:13:51;19.40;99.90
9450;DHT22;4763;48.370;10.874;2022-08-01T05:16:18;19.40;99.90
9450;DHT22;4763;48.370;10.874;2022-08-01T05:18:46;19.40;99.90
9450;DHT22;4763;48.370;10.874;2022-08-01T05:21:13;19.50;99.90
9450;DHT22;4763;48.370;10.874;2022-08-01T05:23:39;19.50;99.90
9450;DHT22;4763;48.370;10.874;2022-08-01T05:26:06;19.50;99.90
9450;DHT22;4763;48.370;10.874;2022-08-01T05:28:35;19.50;99.90
9450;DHT22;4763;48.370;10.874;2022-08-01T05:31:02;19.50;99.90
9450;DHT22;4763;48.370;10.874;2022-08-01T05:33:29;19.60;99.90
9450;DHT22;4763;48.370;10.874;2022-08-01T05:35:55;19.50;99.90
9450;DHT22;4763;48.370;10.874;2022-08-01T05:38:23;19.50;99.90
9450;DHT22;4763;48.370;10.874;2022-08-01T05:40:50;19.60;99.90
9450;DHT22;4763;48.370;10.874;2022-08-01T05:43:17;19.60;99.90
9450;DHT22;4763;48.370;10.874;2022-08-01T05:45:45;19.70;99.90
9450;DHT22;4763;48.370;10.874;2022-08-01T05:48:14;19.70;99.90
9450;DHT22;4763;48.370;10.874;2022-08-01T05:50:41;19.70;99.90
9450;DHT22;4763;48.370;10.874;2022-08-01T05:53:08;19.80;99.90
9450;DHT22;4763;48.370;10.874;2022-08-01T05:55:35;19.80;99.90
9450;DHT22;4763;48.370;10.874;2022-08-01T05:58:02;19.90;99.90
9450;DHT22;4763;48.370;10.874;2022-08-01T06:00:29;19.90;99.90
9450;DHT22;4763;48.370;10.874;2022-08-01T06:02:57;20.00;99.90
9450;DHT22;4763;48.370;10.874;2022-08-01T06:05:25;20.10;99.90
9450;DHT22;4763;48.370;10.874;2022-08-01T06:07:53;20.10;99.90
9450;DHT22;4763;48.370;10.874;2022-08-01T06:10:20;20.20;99.90
9450;DHT22;4763;48.370;10.874;2022-08-01T06:12:47;20.20;99.90
9450;DHT22;4763;48.370;10.874;2022-08-01T06:15:14;20.20;99.90
9450;DHT22;4763;48.370;10.874;2022-08-01T06:17:41;20.30;99.90
9450;DHT22;4763;48.370;10.874;2022-08-01T06:20:11;20.30;99.90
9450;DHT22;4763;48.370;10.874;2022-08-01T06:22:39;20.20;99.90
9450;DHT22;4763;48.370;10.874;2022-08-01T06:25:07;20.30;99.90
9450;DHT22;4763;48.370;10.874;2022-08-01T06:27:35;20.30;99.90
9450;DHT22;4763;48.370;10.874;2022-08-01T06:30:02;20.50;99.90
9450;DHT22;4763;48.370;10.874;2022-08-01T06:32:29;20.70;99.90
9450;DHT22;4763;48.370;10.874;2022-08-01T06:34:56;20.90;99.90
9450;DHT22;4763;48.370;10.874;2022-08-01T06:37:28;21.10;99.90
9450;DHT22;4763;48.370;10.874;2022-08-01T06:39:55;21.30;99.90
9450;DHT22;4763;48.370;10.874;2022-08-01T06:42:22;21.30;99.90
9450;DHT22;4763;48.370;10.874;2022-08-01T06:44:49;21.50;99.90
9450;DHT22;4763;48.370;10.874;2022-08-01T06:47:16;21.70;99.90
9450;DHT22;4763;48.370;10.874;2022-08-01T06:49:43;21.70;99.90
9450;DHT22;4763;48.370;10.874;2022-08-01T06:52:10;21.80;99.90
9450;DHT22;4763;48.370;10.874;2022-08-01T06:54:39;22.00;99.90
9450;DHT22;4763;48.370;10.874;2022-08-01T06:57:06;22.20;99.90
9450;DHT22;4763;48.370;10.874;2022-08-01T06:59:34;22.40;99.90
9450;DHT22;4763;48.370;10.874;2022-08-01T07:02:02;22.40;99.90
9450;DHT22;4763;48.370;10.874;2022-08-01T07:04:29;22.50;99.90
9450;DHT22;4763;48.370;10.874;2022-08-01T07:06:56;22.70;99.90
9450;DHT22;4763;48.370;10.874;2022-08-01T07:09:24;22.80;99.90
9450;DHT22;4763;48.370;10.874;2022-08-01T07:11:59;22.70;99.90
9450;DHT22;4763;48.370;10.874;2022-08-01T07:14:33;22.70;99.90
9450;DHT22;4763;48.370;10.874;2022-08-01T07:17:05;22.60;99.90
9450;DHT22;4763;48.370;10.874;2022-08-01T07:19:33;22.50;99.90
9450;DHT22;4763;48.370;10.874;2022-08-01T07:22:02;22.40;99.90
9450;DHT22;4763;48.370;10.874;2022-08-01T07:25:05;22.50;99.90
9450;DHT22;4763;48.370;10.874;2022-08-01T07:27:41;22.70;99.90
9450;DHT22;4763;48.370;10.874;2022-08-01T07:30:08;22.80;99.90
9450;DHT22;4763;48.370;10.874;2022-08-01T07:32:35;22.90;99.90
9450;DHT22;4763;48.370;10.874;2022-08-01T07:35:08;23.00;99.90
9450;DHT22;4763;48.370;10.874;2022-08-01T07:37:35;23.10;99.90
9450;DHT22;4763;48.370;10.874;2022-08-01T07:40:04;23.10;99.90
9450;DHT22;4763;48.370;10.874;2022-08-01T07:42:34;23.20;99.90
9450;DHT22;4763;48.370;10.874;2022-08-01T07:45:02;23.30;99.90
9450;DHT22;4763;48.370;10.874;2022-08-01T07:47:30;23.40;99.90
9450;DHT22;4763;48.370;10.874;2022-08-01T07:49:59;23.50;99.90
9450;DHT22;4763;48.370;10.874;2022-08-01T07:52:27;23.60;99.90
9450;DHT22;4763;48.370;10.874;2022-08-01T07:54:57;23.70;99.90
9450;DHT22;4763;48.370;10.874;2022-08-01T07:57:25;23.80;99.90
9450;DHT22;4763;48.370;10.874;2022-08-01T07:59:52;23.90;99.90
9450;DHT22;4763;48.370;10.874;2022-08-01T08:02:24;24.10;99.90
9450;DHT22;4763;48.370;10.874;2022-08-01T08:04:52;24.20;99.90
9450;DHT22;4763;48.370;10.874;2022-08-01T08:07:22;24.30;99.90
9450;DHT22;4763;48.370;10.874;2022-08-01T08:13:23;24.60;99.90
9450;DHT22;4763;48.370;10.874;2022-08-01T08:16:08;24.80;99.90
9450;DHT22;4763;48.370;10.874;2022-08-01T08:19:08;24.80;99.90
9450;DHT22;4763;48.370;10.874;2022-08-01T08:21:52;25.00;99.90
9450;DHT22;4763;48.370;10.874;2022-08-01T08:32:13;25.20;99.90
9450;DHT22;4763;48.370;10.874;2022-08-01T08:34:59;25.40;99.90
9450;DHT22;4763;48.370;10.874;2022-08-01T08:37:36;25.50;99.90
9450;DHT22;4763;48.370;10.874;2022-08-01T08:40:06;25.60;99.90
9450;DHT22;4763;48.370;10.874;2022-08-01T08:42:34;25.70;99.90
9450;DHT22;4763;48.370;10.874;2022-08-01T08:45:01;25.70;99.90
9450;DHT22;4763;48.370;10.874;2022-08-01T08:47:32;25.90;99.90
9450;DHT22;4763;48.370;10.874;2022-08-01T08:50:06;25.80;99.90
9450;DHT22;4763;48.370;10.874;2022-08-01T08:52:35;26.00;99.90
9450;DHT22;4763;48.370;10.874;2022-08-01T08:55:08;26.20;99.90
9450;DHT22;4763;48.370;10.874;2022-08-01T08:57:48;26.10;99.90
9450;DHT22;4763;48.370;10.874;2022-08-01T09:00:22;26.10;99.90
9450;DHT22;4763;48.370;10.874;2022-08-01T09:03:12;26.30;99.90
9450;DHT22;4763;48.370;10.874;2022-08-01T09:05:41;26.40;99.90
9450;DHT22;4763;48.370;10.874;2022-08-01T09:08:09;26.50;99.90
9450;DHT22;4763;48.370;10.874;2022-08-01T09:10:36;26.70;99.90
9450;DHT22;4763;48.370;10.874;2022-08-01T09:13:06;26.70;99.90
9450;DHT22;4763;48.370;10.874;2022-08-01T09:15:43;27.00;99.90
9450;DHT22;4763;48.370;10.874;2022-08-01T09:18:26;27.00;99.90
9450;DHT22;4763;48.370;10.874;2022-08-01T09:21:14;27.30;99.90
9450;DHT22;4763;48.370;10.874;2022-08-01T09:23:47;27.40;99.90
9450;DHT22;4763;48.370;10.874;2022-08-01T09:26:16;27.60;99.90
9450;DHT22;4763;48.370;10.874;2022-08-01T09:28:46;27.70;99.90
9450;DHT22;4763;48.370;10.874;2022-08-01T09:31:14;27.70;99.90
9450;DHT22;4763;48.370;10.874;2022-08-01T09:33:58;27.80;99.90
9450;DHT22;4763;48.370;10.874;2022-08-01T09:36:46;27.80;99.90
9450;DHT22;4763;48.370;10.874;2022-08-01T09:39:17;28.00;99.90
9450;DHT22;4763;48.370;10.874;2022-08-01T09:41:44;28.10;99.90
9450;DHT22;4763;48.370;10.874;2022-08-01T09:44:18;28.40;99.90
9450;DHT22;4763;48.370;10.874;2022-08-01T09:46:52;28.50;99.90
9450;DHT22;4763;48.370;10.874;2022-08-01T09:49:32;28.50;99.90
9450;DHT22;4763;48.370;10.874;2022-08-01T09:52:13;28.60;99.90
9450;DHT22;4763;48.370;10.874;2022-08-01T09:54:41;28.30;99.90
9450;DHT22;4763;48.370;10.874;2022-08-01T09:57:10;28.30;99.90
9450;DHT22;4763;48.370;10.874;2022-08-01T09:59:39;28.60;99.90
9450;DHT22;4763;48.370;10.874;2022-08-01T10:02:08;29.00;99.90
9450;DHT22;4763;48.370;10.874;2022-08-01T10:04:36;28.80;99.90
9450;DHT22;4763;48.370;10.874;2022-08-01T10:07:06;28.50;99.90
9450;DHT22;4763;48.370;10.874;2022-08-01T10:09:35;28.10;99.90
9450;DHT22;4763;48.370;10.874;2022-08-01T10:12:04;28.10;99.90
9450;DHT22;4763;48.370;10.874;2022-08-01T10:14:37;28.30;99.90
9450;DHT22;4763;48.370;10.874;2022-08-01T10:17:14;28.60;99.90
9450;DHT22;4763;48.370;10.874;2022-08-01T10:20:06;28.50;99.90
9450;DHT22;4763;48.370;10.874;2022-08-01T10:22:34;28.20;99.90
9450;DHT22;4763;48.370;10.874;2022-08-01T10:25:04;28.40;99.90
9450;DHT22;4763;48.370;10.874;2022-08-01T10:27:33;28.80;99.90
9450;DHT22;4763;48.370;10.874;2022-08-01T10:30:08;29.10;99.90
9450;DHT22;4763;48.370;10.874;2022-08-01T10:32:36;29.30;98.90
9450;DHT22;4763;48.370;10.874;2022-08-01T10:35:04;29.40;98.00
9450;DHT22;4763;48.370;10.874;2022-08-01T10:43:45;29.50;97.60
9450;DHT22;4763;48.370;10.874;2022-08-01T10:46:13;29.80;98.20
9450;DHT22;4763;48.370;10.874;2022-08-01T10:49:01;30.10;97.60
9450;DHT22;4763;48.370;10.874;2022-08-01T10:51:29;30.20;99.50
9450;DHT22;4763;48.370;10.874;2022-08-01T10:54:24;30.20;97.50
9450;DHT22;4763;48.370;10.874;2022-08-01T10:56:52;30.20;97.30
9450;DHT22;4763;48.370;10.874;2022-08-01T10:59:22;30.30;96.50
9450;DHT22;4763;48.370;10.874;2022-08-01T11:01:56;30.10;96.80
9450;DHT22;4763;48.370;10.874;2022-08-01T11:04:34;29.50;96.70
9450;DHT22;4763;48.370;10.874;2022-08-01T11:07:05;29.20;96.60
9450;DHT22;4763;48.370;10.874;2022-08-01T11:09:41;28.90;98.20
9450;DHT22;4763;48.370;10.874;2022-08-01T11:12:10;28.90;98.70
9450;DHT22;4763;48.370;10.874;2022-08-01T11:17:45;29.50;99.10
9450;DHT22;4763;48.370;10.874;2022-08-01T11:20:15;29.40;98.50
9450;DHT22;4763;48.370;10.874;2022-08-01T11:26:23;28.70;97.90
9450;DHT22;4763;48.370;10.874;2022-08-01T11:29:13;28.30;98.40
9450;DHT22;4763;48.370;10.874;2022-08-01T11:31:40;28.10;99.60
9450;DHT22;4763;48.370;10.874;2022-08-01T11:34:08;27.90;99.90
9450;DHT22;4763;48.370;10.874;2022-08-01T11:36:35;27.60;99.90
9450;DHT22;4763;48.370;10.874;2022-08-01T11:39:18;27.20;99.90
9450;DHT22;4763;48.370;10.874;2022-08-01T11:41:47;27.00;99.90
9450;DHT22;4763;48.370;10.874;2022-08-01T11:44:16;26.90;99.90
9450;DHT22;4763;48.370;10.874;2022-08-01T11:46:49;26.80;99.90
9450;DHT22;4763;48.370;10.874;2022-08-01T11:49:25;27.00;99.90
9450;DHT22;4763;48.370;10.874;2022-08-01T11:52:00;27.00;99.90
9450;DHT22;4763;48.370;10.874;2022-08-01T11:54:28;26.90;99.90
9450;DHT22;4763;48.370;10.874;2022-08-01T11:56:57;27.00;99.90
9450;DHT22;4763;48.370;10.874;2022-08-01T11:59:25;27.00;99.90
9450;DHT22;4763;48.370;10.874;2022-08-01T12:01:52;26.90;99.90
9450;DHT22;4763;48.370;10.874;2022-08-01T12:04:19;27.00;99.90
9450;DHT22;4763;48.370;10.874;2022-08-01T12:06:47;27.10;99.90
9450;DHT22;4763;48.370;10.874;2022-08-01T12:09:18;27.20;99.90
9450;DHT22;4763;48.370;10.874;2022-08-01T12:11:45;27.20;99.90
9450;DHT22;4763;48.370;10.874;2022-08-01T12:14:20;27.10;99.90
9450;DHT22;4763;48.370;10.874;2022-08-01T12:16:52;27.10;99.90
9450;DHT22;4763;48.370;10.874;2022-08-01T12:19:21;27.20;99.90
9450;DHT22;4763;48.370;10.874;2022-08-01T12:22:12;27.10;99.90
9450;DHT22;4763;48.370;10.874;2022-08-01T12:24:42;27.00;99.90
9450;DHT22;4763;48.370;10.874;2022-08-01T12:27:10;27.20;99.90
9450;DHT22;4763;48.370;10.874;2022-08-01T12:29:39;27.30;99.90
9450;DHT22;4763;48.370;10.874;2022-08-01T12:32:22;27.30;99.90
9450;DHT22;4763;48.370;10.874;2022-08-01T12:34:50;27.20;99.90
9450;DHT22;4763;48.370;10.874;2022-08-01T12:37:18;27.20;99.90
9450;DHT22;4763;48.370;10.874;2022-08-01T12:39:54;27.00;99.90
9450;DHT22;4763;48.370;10.874;2022-08-01T12:42:22;27.10;99.90
9450;DHT22;4763;48.370;10.874;2022-08-01T12:44:50;27.20;99.90
9450;DHT22;4763;48.370;10.874;2022-08-01T12:47:18;27.30;99.90
9450;DHT22;4763;48.370;10.874;2022-08-01T12:49:47;27.20;99.90
9450;DHT22;4763;48.370;10.874;2022-08-01T12:52:18;27.20;99.90
9450;DHT22;4763;48.370;10.874;2022-08-01T12:55:08;27.50;99.90
9450;DHT22;4763;48.370;10.874;2022-08-01T12:57:38;28.50;99.90
9450;DHT22;4763;48.370;10.874;2022-08-01T13:00:15;29.20;99.90
9450;DHT22;4763;48.370;10.874;2022-08-01T13:02:43;29.60;97.50
9450;DHT22;4763;48.370;10.874;2022-08-01T13:05:11;29.40;98.40
9450;DHT22;4763;48.370;10.874;2022-08-01T13:07:46;29.70;98.00
9450;DHT22;4763;48.370;10.874;2022-08-01T13:10:15;30.10;99.80
9450;DHT22;4763;48.370;10.874;2022-08-01T13:12:51;30.00;97.90
9450;DHT22;4763;48.370;10.874;2022-08-01T13:15:25;30.30;96.50
9450;DHT22;4763;48.370;10.874;2022-08-01T13:17:54;30.30;97.30
9450;DHT22;4763;48.370;10.874;2022-08-01T13:20:24;30.00;97.30
9450;DHT22;4763;48.370;10.874;2022-08-01T13:22:52;29.70;99.90
9450;DHT22;4763;48.370;10.874;2022-08-01T13:25:19;29.50;96.20
9450;DHT22;4763;48.370;10.874;2022-08-01T13:27:46;29.30;96.10
9450;DHT22;4763;48.370;10.874;2022-08-01T13:30:15;29.00;96.40
9450;DHT22;4763;48.370;10.874;2022-08-01T13:32:42;28.50;97.70
9450;DHT22;4763;48.370;10.874;2022-08-01T13:35:12;28.30;98.90
9450;DHT22;4763;48.370;10.874;2022-08-01T13:37:42;28.00;98.80
9450;DHT22;4763;48.370;10.874;2022-08-01T13:40:28;27.90;99.50
9450;DHT22;4763;48.370;10.874;2022-08-01T13:43:12;27.60;99.90
9450;DHT22;4763;48.370;10.874;2022-08-01T13:45:40;26.80;99.90
9450;DHT22;4763;48.370;10.874;2022-08-01T13:48:08;26.10;99.90
9450;DHT22;4763;48.370;10.874;2022-08-01T13:50:35;25.60;99.90
9450;DHT22;4763;48.370;10.874;2022-08-01T13:53:04;25.00;99.90
9450;DHT22;4763;48.370;10.874;2022-08-01T14:00:18;23.00;99.90
9450;DHT22;4763;48.370;10.874;2022-08-01T14:04:01;22.50;99.90
9450;DHT22;4763;48.370;10.874;2022-08-01T14:13:58;21.60;99.90
9450;DHT22;4763;48.370;10.874;2022-08-01T14:16:41;21.40;99.90
9450;DHT22;4763;48.370;10.874;2022-08-01T14:19:10;21.40;99.90
9450;DHT22;4763;48.370;10.874;2022-08-01T14:21:39;21.30;99.90
9450;DHT22;4763;48.370;10.874;2022-08-01T14:24:08;21.20;99.90
9450;DHT22;4763;48.370;10.874;2022-08-01T14:26:35;21.20;99.90
9450;DHT22;4763;48.370;10.874;2022-08-01T14:29:06;21.20;99.90
9450;DHT22;4763;48.370;10.874;2022-08-01T14:32:06;21.10;99.90
9450;DHT22;4763;48.370;10.874;2022-08-01T14:34:35;21.30;99.90
9450;DHT22;4763;48.370;10.874;2022-08-01T14:37:03;21.30;99.90
9450;DHT22;4763;48.370;10.874;2022-08-01T14:39:34;21.40;99.90
9450;DHT22;4763;48.370;10.874;2022-08-01T14:42:29;21.50;99.90
9450;DHT22;4763;48.370;10.874;2022-08-01T14:45:12;21.70;99.90
9450;DHT22;4763;48.370;10.874;2022-08-01T14:47:44;21.70;99.90
9450;DHT22;4763;48.370;10.874;2022-08-01T14:50:16;21.90;99.90
9450;DHT22;4763;48.370;10.874;2022-08-01T14:55:38;22.20;99.90
9450;DHT22;4763;48.370;10.874;2022-08-01T14:58:23;22.40;99.90
9450;DHT22;4763;48.370;10.874;2022-08-01T15:01:02;22.50;99.90
9450;DHT22;4763;48.370;10.874;2022-08-01T15:04:19;22.60;99.90
9450;DHT22;4763;48.370;10.874;2022-08-01T15:07:12;22.60;99.90
9450;DHT22;4763;48.370;10.874;2022-08-01T15:09:56;22.60;99.90
9450;DHT22;4763;48.370;10.874;2022-08-01T15:12:43;22.60;99.90
9450;DHT22;4763;48.370;10.874;2022-08-01T15:15:20;22.60;99.90
9450;DHT22;4763;48.370;10.874;2022-08-01T15:17:48;22.70;99.90
9450;DHT22;4763;48.370;10.874;2022-08-01T15:20:16;22.90;99.90
9450;DHT22;4763;48.370;10.874;2022-08-01T15:22:43;23.00;99.90
9450;DHT22;4763;48.370;10.874;2022-08-01T15:25:11;23.10;99.90
9450;DHT22;4763;48.370;10.874;2022-08-01T15:27:37;23.10;99.90
9450;DHT22;4763;48.370;10.874;2022-08-01T15:30:05;23.20;99.90
9450;DHT22;4763;48.370;10.874;2022-08-01T15:32:32;23.30;99.90
9450;DHT22;4763;48.370;10.874;2022-08-01T15:35:00;23.20;99.90
9450;DHT22;4763;48.370;10.874;2022-08-01T15:37:28;23.20;99.90
9450;DHT22;4763;48.370;10.874;2022-08-01T15:39:55;23.10;99.90
9450;DHT22;4763;48.370;10.874;2022-08-01T15:42:22;23.10;99.90
9450;DHT22;4763;48.370;10.874;2022-08-01T15:44:49;23.10;99.90
9450;DHT22;4763;48.370;10.874;2022-08-01T15:47:15;23.10;99.90
9450;DHT22;4763;48.370;10.874;2022-08-01T15:49:42;23.10;99.90
9450;DHT22;4763;48.370;10.874;2022-08-01T15:52:09;23.00;99.90
9450;DHT22;4763;48.370;10.874;2022-08-01T15:54:38;23.10;99.90
9450;DHT22;4763;48.370;10.874;2022-08-01T15:57:33;23.10;99.90
9450;DHT22;4763;48.370;10.874;2022-08-01T16:00:00;23.00;99.90
9450;DHT22;4763;48.370;10.874;2022-08-01T16:02:27;23.00;99.90
9450;DHT22;4763;48.370;10.874;2022-08-01T16:04:54;23.10;99.90
9450;DHT22;4763;48.370;10.874;2022-08-01T16:07:21;23.40;99.90
9450;DHT22;4763;48.370;10.874;2022-08-01T16:09:47;23.90;99.90
9450;DHT22;4763;48.370;10.874;2022-08-01T16:12:15;24.20;99.90
9450;DHT22;4763;48.370;10.874;2022-08-01T16:14:43;24.50;99.90
9450;DHT22;4763;48.370;10.874;2022-08-01T16:17:10;24.60;99.90
9450;DHT22;4763;48.370;10.874;2022-08-01T16:19:37;24.60;99.90
9450;DHT22;4763;48.370;10.874;2022-08-01T16:22:05;24.60;99.90
9450;DHT22;4763;48.370;10.874;2022-08-01T16:24:32;24.60;99.90
9450;DHT22;4763;48.370;10.874;2022-08-01T16:27:00;24.50;99.90
9450;DHT22;4763;48.370;10.874;2022-08-01T16:29:27;24.40;99.90
9450;DHT22;4763;48.370;10.874;2022-08-01T16:31:58;24.40;99.90
9450;DHT22;4763;48.370;10.874;2022-08-01T16:34:24;24.50;99.90
9450;DHT22;4763;48.370;10.874;2022-08-01T16:36:53;24.70;99.90
9450;DHT22;4763;48.370;10.874;2022-08-01T16:39:21;24.80;99.90
9450;DHT22;4763;48.370;10.874;2022-08-01T16:41:48;24.60;99.90
9450;DHT22;4763;48.370;10.874;2022-08-01T16:44:16;24.50;99.90
9450;DHT22;4763;48.370;10.874;2022-08-01T16:46:43;24.50;99.90
9450;DHT22;4763;48.370;10.874;2022-08-01T16:49:11;24.40;99.90